sensor_id;sensor_type;location;lat;lon;timestamp;P1;durP1;ratioP1;P2;durP2;ratioP2
7487;SDS011;3785;52.260;4.728;2024-02-15T00:00:21;7.00;;;2.08;;
7487;SDS011;3785;52.260;4.728;2024-02-15T00:03:42;4.28;;;1.45;;
7487;SDS011;3785;52.260;4.728;2024-02-15T00:07:03;6.13;;;1.67;;
7487;SDS011;3785;52.260;4.728;2024-02-15T00:10:24;5.05;;;1.60;;
7487;SDS011;3785;52.260;4.728;2024-02-15T00:13:44;4.65;;;2.25;;
7487;SDS011;3785;52.260;4.728;2024-02-15T00:17:05;6.40;;;2.10;;
7487;SDS011;3785;52.260;4.728;2024-02-15T00:20:26;8.63;;;2.42;;
7487;SDS011;3785;52.260;4.728;2024-02-15T00:23:46;7.45;;;2.30;;
7487;SDS011;3785;52.260;4.728;2024-02-15T00:27:07;10.15;;;2.70;;
7487;SDS011;3785;52.260;4.728;2024-02-15T00:30:28;7.00;;;2.40;;
7487;SDS011;3785;52.260;4.728;2024-02-15T00:33:49;11.10;;;2.45;;
7487;SDS011;3785;52.260;4.728;2024-02-15T00:37:09;6.07;;;2.30;;
7487;SDS011;3785;52.260;4.728;2024-02-15T00:40:30;6.72;;;2.60;;
7487;SDS011;3785;52.260;4.728;2024-02-15T00:43:50;5.80;;;2.65;;
7487;SDS011;3785;52.260;4.728;2024-02-15T00:47:11;5.97;;;2.22;;
7487;SDS011;3785;52.260;4.728;2024-02-15T00:50:33;4.13;;;2.13;;
7487;SDS011;3785;52.260;4.728;2024-02-15T00:53:53;6.38;;;2.78;;
7487;SDS011;3785;52.260;4.728;2024-02-15T00:57:14;4.95;;;2.53;;
7487;SDS011;3785;52.260;4.728;2024-02-15T01:00:34;5.35;;;2.40;;
7487;SDS011;3785;52.260;4.728;2024-02-15T01:03:55;4.78;;;2.67;;
7487;SDS011;3785;52.260;4.728;2024-02-15T01:07:15;8.77;;;3.35;;
7487;SDS011;3785;52.260;4.728;2024-02-15T01:10:36;5.55;;;3.25;;
7487;SDS011;3785;52.260;4.728;2024-02-15T01:13:57;4.47;;;3.25;;
7487;SDS011;3785;52.260;4.728;2024-02-15T01:17:18;5.40;;;3.80;;
7487;SDS011;3785;52.260;4.728;2024-02-15T01:20:39;5.15;;;3.22;;
7487;SDS011;3785;52.260;4.728;2024-02-15T01:23:59;9.93;;;4.15;;
7487;SDS011;3785;52.260;4.728;2024-02-15T01:27:23;6.63;;;3.53;;
7487;SDS011;3785;52.260;4.728;2024-02-15T01:30:43;8.52;;;3.58;;
7487;SDS011;3785;52.260;4.728;2024-02-15T01:34:06;7.20;;;3.45;;
7487;SDS011;3785;52.260;4.728;2024-02-15T01:37:26;6.35;;;3.65;;
7487;SDS011;3785;52.260;4.728;2024-02-15T01:40:47;6.20;;;3.13;;
7487;SDS011;3785;52.260;4.728;2024-02-15T01:44:08;5.10;;;3.40;;
7487;SDS011;3785;52.260;4.728;2024-02-15T01:47:31;7.38;;;3.10;;
7487;SDS011;3785;52.260;4.728;2024-02-15T01:50:51;8.07;;;3.28;;
7487;SDS011;3785;52.260;4.728;2024-02-15T01:54:14;5.55;;;3.70;;
7487;SDS011;3785;52.260;4.728;2024-02-15T01:57:37;8.27;;;3.58;;
7487;SDS011;3785;52.260;4.728;2024-02-15T02:00:58;7.05;;;3.33;;
7487;SDS011;3785;52.260;4.728;2024-02-15T02:04:21;11.18;;;4.22;;
7487;SDS011;3785;52.260;4.728;2024-02-15T02:07:42;6.30;;;3.17;;
7487;SDS011;3785;52.260;4.728;2024-02-15T02:11:02;8.52;;;4.15;;
7487;SDS011;3785;52.260;4.728;2024-02-15T02:14:23;6.93;;;3.75;;
7487;SDS011;3785;52.260;4.728;2024-02-15T02:17:47;5.32;;;3.63;;
7487;SDS011;3785;52.260;4.728;2024-02-15T02:21:09;6.07;;;3.83;;
7487;SDS011;3785;52.260;4.728;2024-02-15T02:24:29;9.05;;;3.97;;
7487;SDS011;3785;52.260;4.728;2024-02-15T02:27:50;9.77;;;3.78;;
7487;SDS011;3785;52.260;4.728;2024-02-15T02:31:11;5.72;;;3.78;;
7487;SDS011;3785;52.260;4.728;2024-02-15T02:34:32;7.38;;;3.80;;
7487;SDS011;3785;52.260;4.728;2024-02-15T02:37:52;7.93;;;3.67;;
7487;SDS011;3785;52.260;4.728;2024-02-15T02:41:13;9.98;;;3.83;;
7487;SDS011;3785;52.260;4.728;2024-02-15T02:44:34;6.22;;;3.65;;
7487;SDS011;3785;52.260;4.728;2024-02-15T02:47:54;6.68;;;3.78;;
7487;SDS011;3785;52.260;4.728;2024-02-15T02:51:15;6.28;;;3.10;;
7487;SDS011;3785;52.260;4.728;2024-02-15T02:54:35;6.25;;;2.92;;
7487;SDS011;3785;52.260;4.728;2024-02-15T02:57:56;6.53;;;3.10;;
7487;SDS011;3785;52.260;4.728;2024-02-15T03:01:17;7.40;;;3.38;;
7487;SDS011;3785;52.260;4.728;2024-02-15T03:04:38;5.28;;;3.13;;
7487;SDS011;3785;52.260;4.728;2024-02-15T03:08:00;4.43;;;3.13;;
7487;SDS011;3785;52.260;4.728;2024-02-15T03:11:20;5.65;;;2.88;;
7487;SDS011;3785;52.260;4.728;2024-02-15T03:14:41;7.05;;;3.17;;
7487;SDS011;3785;52.260;4.728;2024-02-15T03:18:02;6.10;;;3.25;;
7487;SDS011;3785;52.260;4.728;2024-02-15T03:21:26;6.88;;;3.35;;
7487;SDS011;3785;52.260;4.728;2024-02-15T03:24:47;6.55;;;2.95;;
7487;SDS011;3785;52.260;4.728;2024-02-15T03:28:08;6.38;;;3.22;;
7487;SDS011;3785;52.260;4.728;2024-02-15T03:31:28;7.13;;;3.22;;
7487;SDS011;3785;52.260;4.728;2024-02-15T03:34:50;7.03;;;2.75;;
7487;SDS011;3785;52.260;4.728;2024-02-15T03:38:11;6.90;;;2.90;;
7487;SDS011;3785;52.260;4.728;2024-02-15T03:41:32;5.10;;;2.75;;
7487;SDS011;3785;52.260;4.728;2024-02-15T03:44:53;3.97;;;2.70;;
7487;SDS011;3785;52.260;4.728;2024-02-15T03:48:14;4.20;;;2.55;;
7487;SDS011;3785;52.260;4.728;2024-02-15T03:51:35;6.25;;;2.88;;
7487;SDS011;3785;52.260;4.728;2024-02-15T03:54:56;7.00;;;3.03;;
7487;SDS011;3785;52.260;4.728;2024-02-15T03:58:17;6.07;;;2.97;;
7487;SDS011;3785;52.260;4.728;2024-02-15T04:01:38;4.20;;;2.55;;
7487;SDS011;3785;52.260;4.728;2024-02-15T04:04:59;4.45;;;2.67;;
7487;SDS011;3785;52.260;4.728;2024-02-15T04:08:21;4.25;;;2.45;;
7487;SDS011;3785;52.260;4.728;2024-02-15T04:11:41;5.22;;;2.80;;
7487;SDS011;3785;52.260;4.728;2024-02-15T04:15:02;6.55;;;3.55;;
7487;SDS011;3785;52.260;4.728;2024-02-15T04:18:31;5.65;;;3.25;;
7487;SDS011;3785;52.260;4.728;2024-02-15T04:21:52;6.20;;;3.83;;
7487;SDS011;3785;52.260;4.728;2024-02-15T04:25:13;7.68;;;4.03;;
7487;SDS011;3785;52.260;4.728;2024-02-15T04:28:36;10.65;;;4.35;;
7487;SDS011;3785;52.260;4.728;2024-02-15T04:31:56;6.10;;;4.15;;
7487;SDS011;3785;52.260;4.728;2024-02-15T04:35:18;6.85;;;4.15;;
7487;SDS011;3785;52.260;4.728;2024-02-15T04:38:39;6.85;;;4.05;;
7487;SDS011;3785;52.260;4.728;2024-02-15T04:41:59;7.55;;;4.13;;
7487;SDS011;3785;52.260;4.728;2024-02-15T04:45:20;7.50;;;4.07;;
7487;SDS011;3785;52.260;4.728;2024-02-15T04:48:42;6.65;;;4.03;;
7487;SDS011;3785;52.260;4.728;2024-02-15T04:52:03;5.03;;;3.75;;
7487;SDS011;3785;52.260;4.728;2024-02-15T04:55:24;6.07;;;3.67;;
7487;SDS011;3785;52.260;4.728;2024-02-15T04:58:46;6.05;;;3.72;;
7487;SDS011;3785;52.260;4.728;2024-02-15T05:02:07;7.28;;;3.47;;
7487;SDS011;3785;52.260;4.728;2024-02-15T05:05:28;6.75;;;3.38;;
7487;SDS011;3785;52.260;4.728;2024-02-15T05:08:49;7.15;;;3.83;;
7487;SDS011;3785;52.260;4.728;2024-02-15T05:12:09;5.03;;;3.17;;
7487;SDS011;3785;52.260;4.728;2024-02-15T05:15:30;5.65;;;3.60;;
7487;SDS011;3785;52.260;4.728;2024-02-15T05:18:51;6.18;;;3.58;;
7487;SDS011;3785;52.260;4.728;2024-02-15T05:22:11;5.00;;;3.08;;
7487;SDS011;3785;52.260;4.728;2024-02-15T05:25:33;3.90;;;3.13;;
7487;SDS011;3785;52.260;4.728;2024-02-15T05:28:55;6.63;;;3.97;;
7487;SDS011;3785;52.260;4.728;2024-02-15T05:32:16;5.05;;;3.50;;
7487;SDS011;3785;52.260;4.728;2024-02-15T05:35:38;5.82;;;3.72;;
7487;SDS011;3785;52.260;4.728;2024-02-15T05:38:59;7.15;;;4.22;;
7487;SDS011;3785;52.260;4.728;2024-02-15T05:42:20;6.72;;;4.78;;
7487;SDS011;3785;52.260;4.728;2024-02-15T05:45:40;7.82;;;4.43;;
7487;SDS011;3785;52.260;4.728;2024-02-15T05:49:01;6.63;;;4.60;;
7487;SDS011;3785;52.260;4.728;2024-02-15T05:52:22;6.10;;;4.32;;
7487;SDS011;3785;52.260;4.728;2024-02-15T05:55:43;8.23;;;4.68;;
7487;SDS011;3785;52.260;4.728;2024-02-15T05:59:04;9.98;;;5.55;;
7487;SDS011;3785;52.260;4.728;2024-02-15T06:02:30;9.10;;;5.05;;
7487;SDS011;3785;52.260;4.728;2024-02-15T06:05:52;9.88;;;5.88;;
7487;SDS011;3785;52.260;4.728;2024-02-15T06:09:18;7.70;;;5.40;;
7487;SDS011;3785;52.260;4.728;2024-02-15T06:12:41;10.90;;;5.63;;
7487;SDS011;3785;52.260;4.728;2024-02-15T06:16:02;9.63;;;5.97;;
7487;SDS011;3785;52.260;4.728;2024-02-15T06:19:29;8.02;;;5.32;;
7487;SDS011;3785;52.260;4.728;2024-02-15T06:22:50;9.88;;;6.10;;
7487;SDS011;3785;52.260;4.728;2024-02-15T06:26:11;12.00;;;5.65;;
7487;SDS011;3785;52.260;4.728;2024-02-15T06:29:32;7.75;;;5.47;;
7487;SDS011;3785;52.260;4.728;2024-02-15T06:33:11;9.02;;;5.63;;
7487;SDS011;3785;52.260;4.728;2024-02-15T06:36:52;7.65;;;5.10;;
7487;SDS011;3785;52.260;4.728;2024-02-15T06:40:32;9.38;;;5.10;;
7487;SDS011;3785;52.260;4.728;2024-02-15T06:43:53;8.02;;;5.22;;
7487;SDS011;3785;52.260;4.728;2024-02-15T06:47:13;8.98;;;5.30;;
7487;SDS011;3785;52.260;4.728;2024-02-15T06:50:37;8.70;;;5.72;;
7487;SDS011;3785;52.260;4.728;2024-02-15T06:53:58;8.63;;;5.85;;
7487;SDS011;3785;52.260;4.728;2024-02-15T06:57:19;8.02;;;5.28;;
7487;SDS011;3785;52.260;4.728;2024-02-15T07:00:40;7.65;;;5.20;;
7487;SDS011;3785;52.260;4.728;2024-02-15T07:04:02;7.82;;;4.93;;
7487;SDS011;3785;52.260;4.728;2024-02-15T07:07:23;6.10;;;4.20;;
7487;SDS011;3785;52.260;4.728;2024-02-15T07:10:43;9.48;;;4.65;;
7487;SDS011;3785;52.260;4.728;2024-02-15T07:14:04;6.70;;;4.90;;
7487;SDS011;3785;52.260;4.728;2024-02-15T07:17:27;8.25;;;4.40;;
7487;SDS011;3785;52.260;4.728;2024-02-15T07:20:48;6.25;;;4.30;;
7487;SDS011;3785;52.260;4.728;2024-02-15T07:24:08;7.25;;;4.18;;
7487;SDS011;3785;52.260;4.728;2024-02-15T07:27:32;4.53;;;3.42;;
7487;SDS011;3785;52.260;4.728;2024-02-15T07:30:55;4.78;;;3.53;;
7487;SDS011;3785;52.260;4.728;2024-02-15T07:34:15;5.53;;;3.30;;
7487;SDS011;3785;52.260;4.728;2024-02-15T07:37:36;5.15;;;3.70;;
7487;SDS011;3785;52.260;4.728;2024-02-15T07:40:56;5.88;;;3.33;;
7487;SDS011;3785;52.260;4.728;2024-02-15T07:44:17;5.82;;;3.05;;
7487;SDS011;3785;52.260;4.728;2024-02-15T07:47:38;3.88;;;2.80;;
7487;SDS011;3785;52.260;4.728;2024-02-15T07:50:58;4.95;;;3.22;;
7487;SDS011;3785;52.260;4.728;2024-02-15T07:54:19;5.25;;;2.95;;
7487;SDS011;3785;52.260;4.728;2024-02-15T07:57:43;4.40;;;3.00;;
7487;SDS011;3785;52.260;4.728;2024-02-15T08:01:03;4.07;;;3.22;;
7487;SDS011;3785;52.260;4.728;2024-02-15T08:04:25;4.75;;;2.83;;
7487;SDS011;3785;52.260;4.728;2024-02-15T08:07:46;3.67;;;2.60;;
7487;SDS011;3785;52.260;4.728;2024-02-15T08:11:09;3.78;;;2.47;;
7487;SDS011;3785;52.260;4.728;2024-02-15T08:14:34;3.65;;;2.55;;
7487;SDS011;3785;52.260;4.728;2024-02-15T08:17:55;3.97;;;2.55;;
7487;SDS011;3785;52.260;4.728;2024-02-15T08:21:15;3.80;;;2.47;;
7487;SDS011;3785;52.260;4.728;2024-02-15T08:24:36;3.45;;;2.33;;
7487;SDS011;3785;52.260;4.728;2024-02-15T08:27:57;4.18;;;2.17;;
7487;SDS011;3785;52.260;4.728;2024-02-15T08:31:18;4.68;;;2.60;;
7487;SDS011;3785;52.260;4.728;2024-02-15T08:34:39;4.22;;;2.80;;
7487;SDS011;3785;52.260;4.728;2024-02-15T08:38:00;5.38;;;2.72;;
7487;SDS011;3785;52.260;4.728;2024-02-15T08:41:25;5.22;;;3.28;;
7487;SDS011;3785;52.260;4.728;2024-02-15T08:44:46;5.10;;;3.17;;
7487;SDS011;3785;52.260;4.728;2024-02-15T08:48:07;4.55;;;3.08;;
7487;SDS011;3785;52.260;4.728;2024-02-15T08:51:28;5.30;;;3.20;;
7487;SDS011;3785;52.260;4.728;2024-02-15T08:54:50;4.85;;;3.15;;
7487;SDS011;3785;52.260;4.728;2024-02-15T08:58:10;5.72;;;3.80;;
7487;SDS011;3785;52.260;4.728;2024-02-15T09:01:31;6.97;;;3.75;;
7487;SDS011;3785;52.260;4.728;2024-02-15T09:04:53;6.40;;;3.88;;
7487;SDS011;3785;52.260;4.728;2024-02-15T09:08:14;4.78;;;3.50;;
7487;SDS011;3785;52.260;4.728;2024-02-15T09:11:35;5.50;;;3.55;;
7487;SDS011;3785;52.260;4.728;2024-02-15T09:14:56;5.47;;;3.85;;
7487;SDS011;3785;52.260;4.728;2024-02-15T09:18:16;6.10;;;3.78;;
7487;SDS011;3785;52.260;4.728;2024-02-15T09:21:42;7.55;;;3.67;;
7487;SDS011;3785;52.260;4.728;2024-02-15T09:25:03;9.35;;;4.45;;
7487;SDS011;3785;52.260;4.728;2024-02-15T09:28:24;8.63;;;4.32;;
7487;SDS011;3785;52.260;4.728;2024-02-15T09:31:45;7.93;;;4.65;;
7487;SDS011;3785;52.260;4.728;2024-02-15T09:35:07;8.75;;;4.88;;
7487;SDS011;3785;52.260;4.728;2024-02-15T09:38:29;10.10;;;5.43;;
7487;SDS011;3785;52.260;4.728;2024-02-15T09:41:49;7.60;;;5.25;;
7487;SDS011;3785;52.260;4.728;2024-02-15T09:45:15;11.20;;;5.75;;
7487;SDS011;3785;52.260;4.728;2024-02-15T09:48:37;8.80;;;5.78;;
7487;SDS011;3785;52.260;4.728;2024-02-15T09:52:00;13.38;;;6.30;;
7487;SDS011;3785;52.260;4.728;2024-02-15T09:55:20;8.07;;;5.53;;
7487;SDS011;3785;52.260;4.728;2024-02-15T09:58:43;8.05;;;5.70;;
7487;SDS011;3785;52.260;4.728;2024-02-15T10:02:03;9.85;;;5.82;;
7487;SDS011;3785;52.260;4.728;2024-02-15T10:05:24;11.50;;;5.68;;
7487;SDS011;3785;52.260;4.728;2024-02-15T10:08:45;10.40;;;5.53;;
7487;SDS011;3785;52.260;4.728;2024-02-15T10:12:07;10.82;;;5.65;;
7487;SDS011;3785;52.260;4.728;2024-02-15T10:15:38;9.05;;;5.82;;
7487;SDS011;3785;52.260;4.728;2024-02-15T10:19:08;8.75;;;5.82;;
7487;SDS011;3785;52.260;4.728;2024-02-15T10:22:30;14.00;;;5.85;;
7487;SDS011;3785;52.260;4.728;2024-02-15T10:25:51;6.53;;;5.07;;
7487;SDS011;3785;52.260;4.728;2024-02-15T10:29:15;8.73;;;6.03;;
7487;SDS011;3785;52.260;4.728;2024-02-15T10:32:37;8.07;;;5.82;;
7487;SDS011;3785;52.260;4.728;2024-02-15T10:36:08;10.43;;;5.72;;
7487;SDS011;3785;52.260;4.728;2024-02-15T10:39:29;10.20;;;5.88;;
7487;SDS011;3785;52.260;4.728;2024-02-15T10:42:51;9.40;;;5.70;;
7487;SDS011;3785;52.260;4.728;2024-02-15T10:46:11;11.00;;;6.32;;
7487;SDS011;3785;52.260;4.728;2024-02-15T10:49:36;10.20;;;5.25;;
7487;SDS011;3785;52.260;4.728;2024-02-15T10:52:57;8.30;;;4.68;;
7487;SDS011;3785;52.260;4.728;2024-02-15T10:56:18;8.02;;;4.95;;
7487;SDS011;3785;52.260;4.728;2024-02-15T10:59:49;8.75;;;5.03;;
7487;SDS011;3785;52.260;4.728;2024-02-15T11:03:17;7.57;;;4.53;;
7487;SDS011;3785;52.260;4.728;2024-02-15T11:06:52;8.60;;;5.03;;
7487;SDS011;3785;52.260;4.728;2024-02-15T11:10:15;8.15;;;4.82;;
7487;SDS011;3785;52.260;4.728;2024-02-15T11:13:37;8.15;;;4.82;;
7487;SDS011;3785;52.260;4.728;2024-02-15T11:16:58;10.52;;;5.60;;
7487;SDS011;3785;52.260;4.728;2024-02-15T11:23:53;9.32;;;4.85;;
7487;SDS011;3785;52.260;4.728;2024-02-15T11:27:27;8.52;;;4.82;;
7487;SDS011;3785;52.260;4.728;2024-02-15T11:30:49;9.07;;;5.20;;
7487;SDS011;3785;52.260;4.728;2024-02-15T11:34:41;8.32;;;4.88;;
7487;SDS011;3785;52.260;4.728;2024-02-15T11:38:03;7.70;;;5.20;;
7487;SDS011;3785;52.260;4.728;2024-02-15T11:41:25;7.88;;;4.68;;
7487;SDS011;3785;52.260;4.728;2024-02-15T11:44:46;7.60;;;5.03;;
7487;SDS011;3785;52.260;4.728;2024-02-15T11:48:09;11.15;;;5.47;;
7487;SDS011;3785;52.260;4.728;2024-02-15T11:55:06;5.88;;;3.67;;
7487;SDS011;3785;52.260;4.728;2024-02-15T11:58:33;6.57;;;4.00;;
7487;SDS011;3785;52.260;4.728;2024-02-15T12:02:12;8.07;;;3.97;;
7487;SDS011;3785;52.260;4.728;2024-02-15T12:05:51;6.90;;;4.45;;
7487;SDS011;3785;52.260;4.728;2024-02-15T12:09:30;7.18;;;3.97;;
7487;SDS011;3785;52.260;4.728;2024-02-15T12:13:09;7.20;;;4.00;;
7487;SDS011;3785;52.260;4.728;2024-02-15T12:16:58;6.25;;;3.97;;
7487;SDS011;3785;52.260;4.728;2024-02-15T12:20:41;4.80;;;3.60;;
7487;SDS011;3785;52.260;4.728;2024-02-15T12:24:01;5.70;;;3.67;;
7487;SDS011;3785;52.260;4.728;2024-02-15T12:27:26;6.18;;;3.75;;
7487;SDS011;3785;52.260;4.728;2024-02-15T12:30:54;5.22;;;3.30;;
7487;SDS011;3785;52.260;4.728;2024-02-15T12:34:18;6.30;;;3.35;;
7487;SDS011;3785;52.260;4.728;2024-02-15T12:37:41;4.90;;;3.05;;
7487;SDS011;3785;52.260;4.728;2024-02-15T12:41:01;4.60;;;3.30;;
7487;SDS011;3785;52.260;4.728;2024-02-15T12:44:22;5.05;;;3.10;;
7487;SDS011;3785;52.260;4.728;2024-02-15T12:47:50;6.53;;;3.58;;
7487;SDS011;3785;52.260;4.728;2024-02-15T12:51:14;6.38;;;2.72;;
7487;SDS011;3785;52.260;4.728;2024-02-15T12:54:35;3.63;;;2.42;;
7487;SDS011;3785;52.260;4.728;2024-02-15T12:57:59;3.88;;;2.33;;
7487;SDS011;3785;52.260;4.728;2024-02-15T13:01:23;3.50;;;2.13;;
7487;SDS011;3785;52.260;4.728;2024-02-15T13:04:48;3.13;;;1.50;;
7487;SDS011;3785;52.260;4.728;2024-02-15T13:08:09;3.92;;;2.15;;
7487;SDS011;3785;52.260;4.728;2024-02-15T13:11:32;4.97;;;1.73;;
7487;SDS011;3785;52.260;4.728;2024-02-15T13:14:54;4.65;;;1.73;;
7487;SDS011;3785;52.260;4.728;2024-02-15T13:18:14;4.38;;;1.85;;
7487;SDS011;3785;52.260;4.728;2024-02-15T13:21:35;3.85;;;1.92;;
7487;SDS011;3785;52.260;4.728;2024-02-15T13:24:55;4.35;;;2.58;;
7487;SDS011;3785;52.260;4.728;2024-02-15T13:28:16;4.30;;;2.20;;
7487;SDS011;3785;52.260;4.728;2024-02-15T13:31:37;3.65;;;1.92;;
7487;SDS011;3785;52.260;4.728;2024-02-15T13:34:57;2.72;;;1.80;;
7487;SDS011;3785;52.260;4.728;2024-02-15T13:38:21;3.47;;;1.90;;
7487;SDS011;3785;52.260;4.728;2024-02-15T13:41:45;2.88;;;1.92;;
7487;SDS011;3785;52.260;4.728;2024-02-15T13:45:05;2.50;;;1.67;;
7487;SDS011;3785;52.260;4.728;2024-02-15T13:48:29;3.50;;;2.13;;
7487;SDS011;3785;52.260;4.728;2024-02-15T13:51:51;6.13;;;2.90;;
7487;SDS011;3785;52.260;4.728;2024-02-15T13:55:16;5.05;;;2.97;;
7487;SDS011;3785;52.260;4.728;2024-02-15T13:58:37;4.75;;;3.47;;
7487;SDS011;3785;52.260;4.728;2024-02-15T14:01:58;4.85;;;3.22;;
7487;SDS011;3785;52.260;4.728;2024-02-15T14:05:19;4.75;;;3.08;;
7487;SDS011;3785;52.260;4.728;2024-02-15T14:08:40;4.00;;;3.20;;
7487;SDS011;3785;52.260;4.728;2024-02-15T14:12:01;4.63;;;3.00;;
7487;SDS011;3785;52.260;4.728;2024-02-15T14:15:25;4.63;;;2.85;;
7487;SDS011;3785;52.260;4.728;2024-02-15T14:18:46;4.35;;;2.60;;
7487;SDS011;3785;52.260;4.728;2024-02-15T14:22:10;2.45;;;1.77;;
7487;SDS011;3785;52.260;4.728;2024-02-15T14:25:36;4.28;;;1.65;;
7487;SDS011;3785;52.260;4.728;2024-02-15T14:28:56;2.60;;;1.73;;
7487;SDS011;3785;52.260;4.728;2024-02-15T14:32:17;2.40;;;1.52;;
7487;SDS011;3785;52.260;4.728;2024-02-15T14:35:56;3.80;;;1.58;;
7487;SDS011;3785;52.260;4.728;2024-02-15T14:39:18;4.43;;;1.70;;
7487;SDS011;3785;52.260;4.728;2024-02-15T14:42:39;3.20;;;1.45;;
7487;SDS011;3785;52.260;4.728;2024-02-15T14:46:01;4.40;;;1.63;;
7487;SDS011;3785;52.260;4.728;2024-02-15T14:49:25;4.80;;;1.67;;
7487;SDS011;3785;52.260;4.728;2024-02-15T14:52:46;3.65;;;1.50;;
7487;SDS011;3785;52.260;4.728;2024-02-15T14:56:10;3.30;;;1.40;;
7487;SDS011;3785;52.260;4.728;2024-02-15T14:59:30;5.22;;;1.60;;
7487;SDS011;3785;52.260;4.728;2024-02-15T15:02:51;3.55;;;1.52;;
7487;SDS011;3785;52.260;4.728;2024-02-15T15:06:12;2.40;;;1.25;;
7487;SDS011;3785;52.260;4.728;2024-02-15T15:09:51;4.05;;;1.52;;
7487;SDS011;3785;52.260;4.728;2024-02-15T15:13:50;3.83;;;1.40;;
7487;SDS011;3785;52.260;4.728;2024-02-15T15:17:11;3.88;;;1.48;;
7487;SDS011;3785;52.260;4.728;2024-02-15T15:20:32;3.85;;;1.40;;
7487;SDS011;3785;52.260;4.728;2024-02-15T15:23:53;3.05;;;1.10;;
7487;SDS011;3785;52.260;4.728;2024-02-15T15:27:14;1.83;;;1.13;;
7487;SDS011;3785;52.260;4.728;2024-02-15T15:30:35;2.60;;;1.27;;
7487;SDS011;3785;52.260;4.728;2024-02-15T15:33:57;2.67;;;1.15;;
7487;SDS011;3785;52.260;4.728;2024-02-15T15:37:18;2.65;;;1.35;;
7487;SDS011;3785;52.260;4.728;2024-02-15T15:40:42;2.28;;;1.10;;
7487;SDS011;3785;52.260;4.728;2024-02-15T15:44:03;2.08;;;1.42;;
7487;SDS011;3785;52.260;4.728;2024-02-15T15:47:24;2.80;;;1.00;;
7487;SDS011;3785;52.260;4.728;2024-02-15T15:50:45;3.45;;;1.45;;
7487;SDS011;3785;52.260;4.728;2024-02-15T15:54:07;3.25;;;1.25;;
7487;SDS011;3785;52.260;4.728;2024-02-15T15:57:28;4.57;;;1.45;;
7487;SDS011;3785;52.260;4.728;2024-02-15T16:00:48;2.25;;;1.33;;
7487;SDS011;3785;52.260;4.728;2024-02-15T16:04:09;3.53;;;1.58;;
7487;SDS011;3785;52.260;4.728;2024-02-15T16:07:30;2.78;;;1.40;;
7487;SDS011;3785;52.260;4.728;2024-02-15T16:10:50;4.55;;;1.40;;
7487;SDS011;3785;52.260;4.728;2024-02-15T16:14:11;3.17;;;1.48;;
7487;SDS011;3785;52.260;4.728;2024-02-15T16:17:38;2.63;;;1.20;;
7487;SDS011;3785;52.260;4.728;2024-02-15T16:20:59;3.15;;;1.45;;
7487;SDS011;3785;52.260;4.728;2024-02-15T16:24:20;3.10;;;1.48;;
7487;SDS011;3785;52.260;4.728;2024-02-15T16:27:41;5.05;;;1.30;;
7487;SDS011;3785;52.260;4.728;2024-02-15T16:31:06;3.40;;;1.60;;
7487;SDS011;3785;52.260;4.728;2024-02-15T16:34:27;2.08;;;1.23;;
7487;SDS011;3785;52.260;4.728;2024-02-15T16:37:48;2.30;;;1.20;;
7487;SDS011;3785;52.260;4.728;2024-02-15T16:41:09;3.78;;;1.70;;
7487;SDS011;3785;52.260;4.728;2024-02-15T16:44:30;4.45;;;1.70;;
7487;SDS011;3785;52.260;4.728;2024-02-15T16:47:51;4.82;;;2.15;;
7487;SDS011;3785;52.260;4.728;2024-02-15T16:51:20;2.95;;;1.50;;
7487;SDS011;3785;52.260;4.728;2024-02-15T16:54:42;5.15;;;1.67;;
7487;SDS011;3785;52.260;4.728;2024-02-15T16:58:03;2.40;;;1.40;;
7487;SDS011;3785;52.260;4.728;2024-02-15T17:01:27;2.08;;;1.50;;
7487;SDS011;3785;52.260;4.728;2024-02-15T17:04:48;2.03;;;1.27;;
7487;SDS011;3785;52.260;4.728;2024-02-15T17:08:09;4.03;;;1.70;;
7487;SDS011;3785;52.260;4.728;2024-02-15T17:11:30;4.40;;;1.73;;
7487;SDS011;3785;52.260;4.728;2024-02-15T17:14:50;3.40;;;2.00;;
7487;SDS011;3785;52.260;4.728;2024-02-15T17:18:11;2.55;;;1.70;;
7487;SDS011;3785;52.260;4.728;2024-02-15T17:21:32;3.45;;;2.00;;
7487;SDS011;3785;52.260;4.728;2024-02-15T17:24:54;3.13;;;1.88;;
7487;SDS011;3785;52.260;4.728;2024-02-15T17:28:14;3.33;;;2.03;;
7487;SDS011;3785;52.260;4.728;2024-02-15T17:31:35;2.58;;;1.58;;
7487;SDS011;3785;52.260;4.728;2024-02-15T17:34:56;3.58;;;2.05;;
7487;SDS011;3785;52.260;4.728;2024-02-15T17:38:16;3.17;;;1.83;;
7487;SDS011;3785;52.260;4.728;2024-02-15T17:41:37;3.72;;;1.90;;
7487;SDS011;3785;52.260;4.728;2024-02-15T17:44:58;3.10;;;2.17;;
7487;SDS011;3785;52.260;4.728;2024-02-15T17:48:20;3.70;;;2.00;;
7487;SDS011;3785;52.260;4.728;2024-02-15T17:51:41;3.60;;;1.92;;
7487;SDS011;3785;52.260;4.728;2024-02-15T17:55:03;5.30;;;2.33;;
7487;SDS011;3785;52.260;4.728;2024-02-15T17:58:25;3.33;;;2.05;;
7487;SDS011;3785;52.260;4.728;2024-02-15T18:01:47;6.65;;;2.20;;
7487;SDS011;3785;52.260;4.728;2024-02-15T18:05:09;5.38;;;2.28;;
7487;SDS011;3785;52.260;4.728;2024-02-15T18:08:30;3.92;;;1.90;;
7487;SDS011;3785;52.260;4.728;2024-02-15T18:11:51;3.90;;;1.67;;
7487;SDS011;3785;52.260;4.728;2024-02-15T18:15:11;4.50;;;1.60;;
7487;SDS011;3785;52.260;4.728;2024-02-15T18:18:42;3.00;;;1.88;;
7487;SDS011;3785;52.260;4.728;2024-02-15T18:22:03;3.53;;;1.63;;
7487;SDS011;3785;52.260;4.728;2024-02-15T18:25:27;3.20;;;1.77;;
7487;SDS011;3785;52.260;4.728;2024-02-15T18:28:47;3.13;;;1.52;;
7487;SDS011;3785;52.260;4.728;2024-02-15T18:32:08;3.03;;;1.48;;
7487;SDS011;3785;52.260;4.728;2024-02-15T18:35:30;3.88;;;1.60;;
7487;SDS011;3785;52.260;4.728;2024-02-15T18:38:51;3.97;;;1.58;;
7487;SDS011;3785;52.260;4.728;2024-02-15T18:42:12;3.92;;;1.58;;
7487;SDS011;3785;52.260;4.728;2024-02-15T18:45:35;3.05;;;1.55;;
7487;SDS011;3785;52.260;4.728;2024-02-15T18:48:59;4.07;;;1.50;;
7487;SDS011;3785;52.260;4.728;2024-02-15T18:52:20;2.75;;;1.88;;
7487;SDS011;3785;52.260;4.728;2024-02-15T18:55:41;4.28;;;1.70;;
7487;SDS011;3785;52.260;4.728;2024-02-15T18:59:02;3.70;;;1.98;;
7487;SDS011;3785;52.260;4.728;2024-02-15T19:02:25;3.83;;;2.22;;
7487;SDS011;3785;52.260;4.728;2024-02-15T19:05:48;4.30;;;1.80;;
7487;SDS011;3785;52.260;4.728;2024-02-15T19:09:09;3.80;;;1.75;;
7487;SDS011;3785;52.260;4.728;2024-02-15T19:12:29;4.60;;;1.70;;
7487;SDS011;3785;52.260;4.728;2024-02-15T19:15:52;3.22;;;1.45;;
7487;SDS011;3785;52.260;4.728;2024-02-15T19:19:15;4.97;;;1.80;;
7487;SDS011;3785;52.260;4.728;2024-02-15T19:22:39;4.05;;;1.70;;
7487;SDS011;3785;52.260;4.728;2024-02-15T19:26:00;3.35;;;1.63;;
7487;SDS011;3785;52.260;4.728;2024-02-15T19:29:21;2.85;;;1.58;;
7487;SDS011;3785;52.260;4.728;2024-02-15T19:32:41;3.22;;;1.60;;
7487;SDS011;3785;52.260;4.728;2024-02-15T19:36:02;2.63;;;1.60;;
7487;SDS011;3785;52.260;4.728;2024-02-15T19:39:23;2.53;;;1.55;;
7487;SDS011;3785;52.260;4.728;2024-02-15T19:42:44;3.20;;;1.15;;
7487;SDS011;3785;52.260;4.728;2024-02-15T19:46:05;2.50;;;1.40;;
7487;SDS011;3785;52.260;4.728;2024-02-15T19:49:26;2.65;;;1.60;;
7487;SDS011;3785;52.260;4.728;2024-02-15T19:52:47;2.58;;;1.42;;
7487;SDS011;3785;52.260;4.728;2024-02-15T19:56:07;3.17;;;1.80;;
7487;SDS011;3785;52.260;4.728;2024-02-15T19:59:28;3.88;;;1.58;;
7487;SDS011;3785;52.260;4.728;2024-02-15T20:02:49;3.78;;;1.83;;
7487;SDS011;3785;52.260;4.728;2024-02-15T20:06:15;2.47;;;1.42;;
7487;SDS011;3785;52.260;4.728;2024-02-15T20:09:36;3.00;;;1.33;;
7487;SDS011;3785;52.260;4.728;2024-02-15T20:12:57;3.40;;;1.40;;
7487;SDS011;3785;52.260;4.728;2024-02-15T20:16:18;2.00;;;1.30;;
7487;SDS011;3785;52.260;4.728;2024-02-15T20:19:41;2.58;;;1.63;;
7487;SDS011;3785;52.260;4.728;2024-02-15T20:23:02;2.28;;;1.70;;
7487;SDS011;3785;52.260;4.728;2024-02-15T20:26:23;2.72;;;1.40;;
7487;SDS011;3785;52.260;4.728;2024-02-15T20:29:47;5.07;;;1.40;;
7487;SDS011;3785;52.260;4.728;2024-02-15T20:33:10;3.40;;;1.38;;
7487;SDS011;3785;52.260;4.728;2024-02-15T20:36:37;4.30;;;1.60;;
7487;SDS011;3785;52.260;4.728;2024-02-15T20:39:58;2.28;;;1.23;;
7487;SDS011;3785;52.260;4.728;2024-02-15T20:43:19;3.13;;;1.80;;
7487;SDS011;3785;52.260;4.728;2024-02-15T20:46:40;2.47;;;1.50;;
7487;SDS011;3785;52.260;4.728;2024-02-15T20:50:01;4.43;;;1.80;;
7487;SDS011;3785;52.260;4.728;2024-02-15T20:53:22;2.45;;;1.58;;
7487;SDS011;3785;52.260;4.728;2024-02-15T20:56:44;3.20;;;1.27;;
7487;SDS011;3785;52.260;4.728;2024-02-15T21:00:07;2.38;;;1.25;;
7487;SDS011;3785;52.260;4.728;2024-02-15T21:03:34;2.50;;;1.38;;